Time;durP1;ratioP1;P1;durP2;ratioP2;P2;SDS_P1;SDS_P2;PMS_P1;PMS_P2;Temp;Humidity;BMP_temperature;BMP_pressure;BME280_temperature;BME280_humidity;BME280_pressure;Samples;Min_cycle;Max_cycle;Signal;HPM_P1;HPM_P2
2022/05/25 00:00:19;;;;;;;3.67;1.05;;;10.90;99.90;;;-146.41;100.00;57768.22;5025895;28;20068;-65
2022/05/25 00:02:46;;;;;;;4.55;0.73;;;10.90;99.90;;;-146.41;100.00;57768.22;5025137;28;20050;-65
2022/05/25 00:05:16;;;;;;;2.53;0.77;;;11.00;99.90;;;-146.41;100.00;57768.22;5022658;28;20054;-66
2022/05/25 00:07:43;;;;;;;2.47;0.60;;;10.90;99.90;;;-146.41;100.00;57768.22;5023376;28;20128;-66
2022/05/25 00:10:11;;;;;;;3.13;0.70;;;10.80;99.90;;;-146.41;100.00;57768.22;5020506;28;20080;-67
2022/05/25 00:12:40;;;;;;;3.05;0.57;;;10.80;99.90;;;-146.41;100.00;57768.22;5021624;28;20202;-66
2022/05/25 00:15:10;;;;;;;3.90;0.65;;;10.70;99.90;;;-146.41;100.00;57768.22;5021106;28;20140;-65
2022/05/25 00:17:37;;;;;;;5.53;0.70;;;10.70;99.90;;;-146.41;100.00;57768.22;5022816;28;20077;-67
2022/05/25 00:20:06;;;;;;;2.53;0.85;;;10.60;99.90;;;-146.41;100.00;57768.22;5020272;28;20137;-67
2022/05/25 00:22:42;;;;;;;3.40;0.60;;;10.60;99.90;;;-146.41;100.00;57768.22;5023404;28;20637;-67
2022/05/25 00:25:20;;;;;;;3.00;0.63;;;10.60;99.90;;;-146.41;100.00;57768.22;5023525;28;20057;-67
2022/05/25 00:27:47;;;;;;;7.30;0.70;;;10.60;99.90;;;-146.41;100.00;57768.22;5018527;28;20388;-65
2022/05/25 00:30:17;;;;;;;2.80;0.70;;;10.50;99.90;;;-146.41;100.00;57768.22;5022294;28;20061;-67
2022/05/25 00:32:45;;;;;;;1.60;0.60;;;10.40;99.90;;;-146.41;100.00;57768.22;5022617;28;20099;-67
2022/05/25 00:35:17;;;;;;;2.33;0.70;;;10.40;99.90;;;-146.41;100.00;57768.22;5024124;28;20499;-67
2022/05/25 00:37:45;;;;;;;2.78;0.80;;;10.30;99.90;;;-146.41;100.00;57768.22;5023183;28;20049;-67
2022/05/25 00:40:18;;;;;;;4.88;0.95;;;10.20;99.90;;;-146.41;100.00;57768.22;5023283;28;20079;-67
2022/05/25 00:42:45;;;;;;;4.53;0.82;;;10.20;99.90;;;-146.41;100.00;57768.22;5021418;28;20087;-67
2022/05/25 00:45:13;;;;;;;3.38;0.80;;;;;;;-146.41;100.00;57768.22;5019414;28;20105;-68
2022/05/25 00:47:47;;;;;;;6.22;0.95;;;10.00;99.90;;;-146.41;100.00;57768.22;5023513;28;20379;-67
2022/05/25 00:50:19;;;;;;;2.63;0.98;;;10.00;99.90;;;-146.41;100.00;57768.22;5018675;28;20077;-68
2022/05/25 00:52:48;;;;;;;4.22;0.98;;;9.90;99.90;;;-146.41;100.00;57768.22;5015758;28;20136;-66
2022/05/25 00:55:28;;;;;;;4.05;0.82;;;9.80;99.90;;;-146.41;100.00;57768.22;5018590;28;22269;-67
2022/05/25 00:57:59;;;;;;;1.30;0.70;;;9.80;99.90;;;-146.41;100.00;57768.22;5017869;28;20171;-67
2022/05/25 01:00:29;;;;;;;3.85;0.77;;;9.70;99.90;;;-146.41;100.00;57768.22;5018270;28;20712;-66
2022/05/25 01:03:08;;;;;;;5.13;0.90;;;9.70;99.90;;;-146.41;100.00;57768.22;5019037;28;20948;-65
2022/05/25 01:06:09;;;;;;;3.40;0.90;;;9.60;99.90;;;-146.41;100.00;57768.22;5016762;28;20049;-66
2022/05/25 01:09:05;;;;;;;1.80;0.82;;;9.60;99.90;;;-146.41;100.00;57768.22;5019053;28;20132;-66
2022/05/25 01:12:05;;;;;;;2.45;0.85;;;9.50;99.90;;;-146.41;100.00;57768.22;5036592;28;20472;-66
2022/05/25 01:15:01;;;;;;;2.22;0.80;;;9.50;99.90;;;-146.41;100.00;57768.22;5021314;28;20137;-67
2022/05/25 01:17:53;;;;;;;3.05;0.90;;;9.50;99.90;;;-146.41;100.00;57768.22;5019180;28;20553;-67
2022/05/25 01:20:35;;;;;;;2.10;0.80;;;9.50;99.90;;;-146.41;100.00;57768.22;5022139;28;20077;-66
2022/05/25 01:23:23;;;;;;;2.60;1.13;;;9.40;99.90;;;-146.41;100.00;57768.22;5022686;28;20069;-66
2022/05/25 01:26:32;;;;;;;3.92;1.05;;;9.40;99.90;;;-146.41;100.00;57768.22;5017095;28;20176;-66
2022/05/25 01:29:02;;;;;;;5.30;1.15;;;9.40;99.90;;;-146.41;100.00;57768.22;5035137;28;20089;-67
2022/05/25 01:31:59;;;;;;;2.33;1.15;;;9.30;99.90;;;-146.41;100.00;57768.22;5018969;28;20057;-67
2022/05/25 01:34:52;;;;;;;3.58;1.10;;;9.30;99.90;;;-146.41;100.00;57768.22;5022803;28;20092;-67
2022/05/25 01:37:54;;;;;;;6.90;1.13;;;9.20;99.90;;;-146.41;100.00;57768.22;5018664;28;20052;-67
2022/05/25 01:40:35;;;;;;;4.00;1.00;;;9.20;99.90;;;-146.41;100.00;57768.22;5036785;28;20418;-65
2022/05/25 01:43:13;;;;;;;3.83;0.88;;;9.10;99.90;;;-146.41;100.00;57768.22;5020614;28;20192;-66
2022/05/25 01:45:51;;;;;;;3.58;1.20;;;;;;;-146.41;100.00;57768.22;5025994;28;20137;-66
2022/05/25 01:48:21;;;;;;;2.67;1.10;;;9.00;99.90;;;-146.41;100.00;57768.22;5020950;28;20073;-66
2022/05/25 01:50:59;;;;;;;3.22;0.90;;;9.00;99.90;;;-146.41;100.00;57768.22;5022795;28;20077;-66
2022/05/25 01:53:34;;;;;;;3.08;0.80;;;8.90;99.90;;;-146.41;100.00;57768.22;5017540;28;20095;-67
2022/05/25 01:56:06;;;;;;;2.63;1.00;;;8.90;99.90;;;-146.41;100.00;57768.22;5018104;28;20151;-66
2022/05/25 01:58:37;;;;;;;5.60;1.23;;;8.90;99.90;;;-146.41;100.00;57768.22;5016502;28;20046;-66
2022/05/25 02:01:09;;;;;;;4.03;1.00;;;8.90;99.90;;;-146.41;100.00;57768.22;5020597;28;20133;-66
2022/05/25 02:06:37;;;;;;;4.25;1.20;;;8.90;99.90;;;-146.41;100.00;57768.22;5020660;28;20045;-66
2022/05/25 02:09:56;;;;;;;3.70;0.95;;;8.80;99.90;;;-146.41;100.00;57768.22;5020161;28;20179;-66
2022/05/25 02:12:40;;;;;;;2.65;0.95;;;8.70;99.90;;;-146.41;100.00;57768.22;5024933;28;20212;-65
2022/05/25 02:15:40;;;;;;;1.42;0.80;;;8.70;99.90;;;-146.41;100.00;57768.22;5025502;28;20055;-67
2022/05/25 02:18:26;;;;;;;6.35;0.90;;;8.70;99.90;;;-146.41;100.00;57768.22;5022877;28;20059;-66
2022/05/25 02:21:15;;;;;;;2.33;0.90;;;8.70;99.90;;;-146.41;100.00;57768.22;5042630;28;20141;-67
2022/05/25 02:23:49;;;;;;;2.30;1.17;;;8.70;99.90;;;-146.41;100.00;57768.22;5021014;28;20137;-65
2022/05/25 02:26:28;;;;;;;3.60;1.10;;;8.70;99.90;;;-146.41;100.00;57768.22;5022329;28;20148;-67
2022/05/25 02:29:06;;;;;;;3.33;1.10;;;8.70;99.90;;;-146.41;100.00;57768.22;5022686;28;20125;-67
2022/05/25 02:31:44;;;;;;;3.28;1.25;;;8.70;99.90;;;-146.41;100.00;57768.22;5026973;28;20120;-66
2022/05/25 02:34:16;;;;;;;2.20;1.02;;;8.70;99.90;;;-146.41;100.00;57768.22;5026856;28;20095;-66
2022/05/25 02:36:46;;;;;;;3.13;1.25;;;8.80;99.90;;;-146.41;100.00;57768.22;5026500;28;20080;-67
2022/05/25 02:39:14;;;;;;;4.07;0.90;;;8.80;99.90;;;-146.41;100.00;57768.22;5025242;28;20511;-66
2022/05/25 02:41:52;;;;;;;2.60;0.93;;;8.70;99.90;;;-146.41;100.00;57768.22;5023028;28;20125;-66
2022/05/25 02:44:20;;;;;;;1.70;0.90;;;8.70;99.90;;;-146.41;100.00;57768.22;5026144;28;20125;-67
2022/05/25 02:46:47;;;;;;;2.00;0.90;;;8.60;99.90;;;-146.41;100.00;57768.22;5025138;28;20045;-67
2022/05/25 02:49:17;;;;;;;2.60;1.08;;;8.60;99.90;;;-146.41;100.00;57768.22;5024307;28;20049;-67
2022/05/25 02:51:45;;;;;;;8.52;1.60;;;8.50;99.90;;;-146.41;100.00;57768.22;5041742;28;20092;-67
2022/05/25 02:54:12;;;;;;;6.70;1.55;;;8.50;99.90;;;-146.41;100.00;57768.22;5023838;28;20085;-67
2022/05/25 02:56:39;;;;;;;1.70;1.10;;;8.40;99.90;;;-146.41;100.00;57768.22;5026127;28;20037;-67
2022/05/25 02:59:06;;;;;;;4.38;1.30;;;8.30;99.90;;;-146.41;100.00;57768.22;5024687;28;20119;-66
2022/05/25 03:01:33;;;;;;;4.63;1.10;;;8.30;99.90;;;-146.41;100.00;57768.22;5022689;28;20093;-67
2022/05/25 03:04:00;;;;;;;4.30;1.85;;;8.30;99.90;;;-146.41;100.00;57768.22;5023809;28;20076;-67
2022/05/25 03:06:28;;;;;;;3.25;1.55;;;8.30;99.90;;;-146.41;100.00;57768.22;5025376;28;20045;-67
2022/05/25 03:08:54;;;;;;;3.83;1.30;;;8.20;99.90;;;-146.41;100.00;57768.22;5026076;28;20158;-67
2022/05/25 03:11:22;;;;;;;2.45;1.25;;;8.20;99.90;;;-146.41;100.00;57768.22;5025668;28;20493;-67
2022/05/25 03:13:49;;;;;;;5.78;1.38;;;8.20;99.90;;;-146.41;100.00;57768.22;5024446;28;20084;-65
2022/05/25 03:16:19;;;;;;;2.70;1.27;;;8.20;99.90;;;-146.41;100.00;57768.22;5023394;28;20495;-67
2022/05/25 03:18:47;;;;;;;2.78;1.48;;;8.20;99.90;;;-146.41;100.00;57768.22;5024376;28;20049;-66
2022/05/25 03:21:14;;;;;;;4.43;1.40;;;8.10;99.90;;;-146.41;100.00;57768.22;5023671;28;20045;-67
2022/05/25 03:23:41;;;;;;;3.85;1.42;;;8.10;99.90;;;-146.41;100.00;57768.22;5021251;28;20077;-66
2022/05/25 03:26:08;;;;;;;3.58;1.70;;;8.00;99.90;;;-146.41;100.00;57768.22;5021567;28;20045;-66
2022/05/25 03:28:36;;;;;;;3.80;1.58;;;;;;;-146.41;100.00;57768.22;5024797;28;20128;-67
2022/05/25 03:31:04;;;;;;;10.10;2.38;;;7.90;99.90;;;-146.41;100.00;57768.22;5025288;28;20128;-66
2022/05/25 03:33:33;;;;;;;3.35;1.88;;;7.90;99.90;;;-146.41;100.00;57768.22;5023958;28;20053;-66
2022/05/25 03:35:59;;;;;;;4.30;1.48;;;7.90;99.90;;;-146.41;100.00;57768.22;5022274;28;20089;-66
2022/05/25 03:38:27;;;;;;;2.50;1.42;;;7.90;99.90;;;-146.41;100.00;57768.22;5025754;28;20081;-66
2022/05/25 03:40:54;;;;;;;6.25;1.50;;;7.80;99.90;;;-146.41;100.00;57768.22;5023075;28;20060;-66
2022/05/25 03:43:35;;;;;;;3.08;1.52;;;7.80;99.90;;;-146.41;100.00;57768.22;5023764;28;20487;-66
2022/05/25 03:46:02;;;;;;;1.52;1.05;;;7.90;99.90;;;-146.41;100.00;57768.22;5024413;28;20115;-65
2022/05/25 03:48:29;;;;;;;4.03;1.00;;;8.00;99.90;;;-146.41;100.00;57768.22;5025986;28;20041;-67
2022/05/25 03:50:56;;;;;;;2.40;1.20;;;8.10;99.90;;;-146.41;100.00;57768.22;5025819;28;20132;-66
2022/05/25 03:53:23;;;;;;;5.55;1.92;;;8.20;99.90;;;-146.41;100.00;57768.22;5025764;28;20452;-67
2022/05/25 03:55:50;;;;;;;3.55;1.60;;;8.30;99.90;;;-146.41;100.00;57768.22;5021859;28;20132;-67
2022/05/25 03:58:17;;;;;;;2.40;1.48;;;8.30;99.90;;;-146.41;100.00;57768.22;5021325;28;20049;-67
2022/05/25 04:00:44;;;;;;;5.05;1.95;;;8.40;99.90;;;-146.41;100.00;57768.22;5022987;28;20073;-66
2022/05/25 04:03:17;;;;;;;3.13;1.60;;;8.30;99.90;;;-146.41;100.00;57768.22;5023579;28;20124;-67
2022/05/25 04:05:44;;;;;;;6.63;1.88;;;8.30;99.90;;;-146.41;100.00;57768.22;5022341;28;20132;-66
2022/05/25 04:08:11;;;;;;;5.00;1.67;;;8.20;99.90;;;-146.41;100.00;57768.22;5023593;28;20140;-66
2022/05/25 04:10:39;;;;;;;3.55;1.60;;;8.30;99.90;;;-146.41;100.00;57768.22;5023742;28;20133;-67
2022/05/25 04:13:06;;;;;;;2.95;1.20;;;8.30;99.90;;;-146.41;100.00;57768.22;5022366;28;20057;-67
2022/05/25 04:15:34;;;;;;;6.07;1.48;;;8.30;99.90;;;-146.41;100.00;57768.22;5024743;28;20077;-67
2022/05/25 04:18:02;;;;;;;7.68;1.92;;;8.30;99.90;;;-146.41;100.00;57768.22;5025051;28;20204;-65
2022/05/25 04:20:32;;;;;;;3.80;1.40;;;8.30;99.90;;;-146.41;100.00;57768.22;5022953;28;20418;-67
2022/05/25 04:23:00;;;;;;;9.07;1.77;;;8.20;99.90;;;-146.41;100.00;57768.22;5022751;28;20042;-67
2022/05/25 04:25:27;;;;;;;4.65;1.70;;;8.20;99.90;;;-146.41;100.00;57768.22;5021636;28;20053;-66
2022/05/25 04:27:56;;;;;;;5.35;1.75;;;8.20;99.90;;;-146.41;100.00;57768.22;5023094;28;20116;-66
2022/05/25 04:30:27;;;;;;;4.07;1.67;;;8.20;99.90;;;-146.41;100.00;57768.22;5021158;28;20085;-65
2022/05/25 04:32:55;;;;;;;3.88;1.02;;;8.20;99.90;;;-146.41;100.00;57768.22;5023466;28;20073;-66
2022/05/25 04:35:23;;;;;;;4.00;1.50;;;8.30;99.90;;;-146.41;100.00;57768.22;5021359;28;20053;-66
2022/05/25 04:37:53;;;;;;;4.20;1.48;;;8.40;99.90;;;-146.41;100.00;57768.22;5023491;28;20045;-66
2022/05/25 04:40:38;;;;;;;3.05;1.20;;;8.40;99.90;;;-146.41;100.00;57768.22;5024769;28;20552;-66
2022/05/25 04:43:10;;;;;;;4.63;1.98;;;8.50;99.90;;;-146.41;100.00;57768.22;5021268;28;20132;-67
2022/05/25 04:45:43;;;;;;;5.53;1.50;;;8.60;99.90;;;-146.41;100.00;57768.22;5023459;28;20991;-66
2022/05/25 04:48:13;;;;;;;6.25;2.20;;;8.70;99.90;;;-146.41;100.00;57768.22;5023467;28;20088;-65
2022/05/25 04:50:42;;;;;;;4.18;2.10;;;8.70;99.90;;;-146.41;100.00;57768.22;5022557;28;20054;-65
2022/05/25 04:53:14;;;;;;;7.25;2.63;;;8.80;99.90;;;-146.41;100.00;57768.22;5021110;28;20098;-64
2022/05/25 04:58:37;;;;;;;3.50;1.77;;;8.80;99.90;;;-146.41;100.00;57768.22;5021482;28;20103;-68
2022/05/25 05:01:06;;;;;;;3.88;2.10;;;8.90;99.90;;;-146.41;100.00;57768.22;5021238;28;21017;-68
2022/05/25 05:03:35;;;;;;;3.92;2.50;;;8.90;99.90;;;-146.41;100.00;57768.22;5024502;28;20041;-67
2022/05/25 05:06:05;;;;;;;14.07;9.95;;;9.10;99.90;;;-146.41;100.00;57768.22;5022308;28;20523;-67
2022/05/25 05:08:34;;;;;;;9.95;4.97;;;9.10;99.90;;;-146.41;100.00;57768.22;5019664;28;20156;-66
2022/05/25 05:11:11;;;;;;;9.15;4.25;;;9.20;99.90;;;-146.41;100.00;57768.22;5020559;28;20132;-68
2022/05/25 05:13:39;;;;;;;8.40;3.97;;;9.40;99.90;;;-146.41;100.00;57768.22;5023591;28;20068;-66
2022/05/25 05:16:14;;;;;;;7.72;2.95;;;9.60;99.90;;;-146.41;100.00;57768.22;5027543;28;20088;-66
2022/05/25 05:18:43;;;;;;;5.80;3.00;;;9.70;99.90;;;-146.41;100.00;57768.22;5035267;28;20068;-66
2022/05/25 05:21:10;;;;;;;5.35;3.28;;;9.80;99.90;;;-146.41;100.00;57768.22;5032833;28;20491;-66
2022/05/25 05:23:39;;;;;;;4.82;2.55;;;9.90;99.90;;;-146.41;100.00;57768.22;5025286;28;20133;-67
2022/05/25 05:26:08;;;;;;;5.10;2.63;;;10.10;99.90;;;-146.41;100.00;57768.22;5026045;28;20053;-66
2022/05/25 05:28:39;;;;;;;4.30;2.45;;;10.30;99.90;;;-146.41;100.00;57768.22;5026772;28;20061;-66
2022/05/25 05:31:07;;;;;;;7.57;3.03;;;10.50;99.90;;;-146.41;100.00;57768.22;5025577;28;20057;-67
2022/05/25 05:33:35;;;;;;;9.68;2.92;;;10.60;99.90;;;-146.41;100.00;57768.22;5027869;28;20053;-66
2022/05/25 05:36:13;;;;;;;6.55;2.63;;;10.70;99.90;;;-146.41;100.00;57768.22;5024631;28;20140;-66
2022/05/25 05:38:49;;;;;;;6.45;2.67;;;10.90;99.90;;;-146.41;100.00;57768.22;5021439;28;20188;-67
2022/05/25 05:41:19;;;;;;;5.85;2.85;;;11.00;99.90;;;-146.41;100.00;57768.22;5009448;28;20052;-66
2022/05/25 05:43:46;;;;;;;9.80;2.90;;;11.10;99.90;;;-146.41;100.00;57768.22;5026496;28;20499;-67
2022/05/25 05:46:14;;;;;;;7.50;2.80;;;11.20;99.90;;;-146.41;100.00;57768.22;5026167;28;20674;-66
2022/05/25 05:48:41;;;;;;;9.23;3.03;;;11.30;99.90;;;-146.41;100.00;57768.22;5030807;28;20107;-66
2022/05/25 05:51:10;;;;;;;9.88;3.05;;;11.40;99.90;;;-146.41;100.00;57768.22;5033095;28;20065;-67
2022/05/25 05:53:40;;;;;;;5.20;2.53;;;11.40;99.90;;;-146.41;100.00;57768.22;5031097;28;20056;-66
2022/05/25 05:56:08;;;;;;;6.28;2.78;;;11.50;99.90;;;-146.41;100.00;57768.22;5029715;28;20515;-66
2022/05/25 05:58:35;;;;;;;5.20;2.47;;;11.70;99.90;;;-146.41;100.00;57768.22;5022776;28;20471;-67
2022/05/25 06:01:03;;;;;;;5.20;2.40;;;11.80;99.90;;;-146.41;100.00;57768.22;5028188;28;20065;-67
2022/05/25 06:03:30;;;;;;;6.78;2.97;;;11.90;99.90;;;-146.41;100.00;57768.22;5031221;28;20045;-67
2022/05/25 06:05:56;;;;;;;5.07;2.05;;;12.00;99.90;;;-146.41;100.00;57768.22;5027061;28;20368;-67
2022/05/25 06:08:24;;;;;;;6.97;2.45;;;12.10;99.90;;;-146.41;100.00;57768.22;5025304;28;20081;-67
2022/05/25 06:10:52;;;;;;;3.45;1.85;;;12.20;99.90;;;-146.41;100.00;57768.22;5030203;28;20143;-64
2022/05/25 06:13:19;;;;;;;8.23;2.42;;;12.20;99.90;;;-146.41;100.00;57768.22;5020253;28;20073;-67
2022/05/25 06:21:22;;;;;;;7.18;1.77;;;12.50;99.90;;;-146.41;100.00;57768.22;5030907;28;20076;-67
2022/05/25 06:23:50;;;;;;;6.72;2.00;;;12.60;99.90;;;-146.41;100.00;57768.22;5025491;28;20046;-67
2022/05/25 06:26:18;;;;;;;4.13;1.50;;;12.70;99.90;;;-146.41;100.00;57768.22;5010525;28;20053;-67
2022/05/25 06:28:45;;;;;;;4.35;1.50;;;12.80;99.90;;;-146.41;100.00;57768.22;5029756;28;20111;-67
2022/05/25 06:31:13;;;;;;;5.45;1.60;;;12.90;99.90;;;-146.41;100.00;57768.22;5025412;28;20065;-67
2022/05/25 06:33:43;;;;;;;5.45;1.45;;;13.00;99.90;;;-146.41;100.00;57768.22;5029402;28;20068;-67
2022/05/25 06:36:17;;;;;;;6.93;1.35;;;13.10;99.90;;;-146.41;100.00;57768.22;5027086;28;20408;-66
2022/05/25 06:38:45;;;;;;;3.63;1.27;;;13.30;99.90;;;-146.41;100.00;57768.22;5026706;28;20161;-67
2022/05/25 06:41:13;;;;;;;2.65;0.95;;;13.50;99.90;;;-146.41;100.00;57768.22;5027519;28;20092;-66
2022/05/25 06:43:42;;;;;;;7.72;1.50;;;13.60;99.90;;;-146.41;100.00;57768.22;5025013;28;20140;-65
2022/05/25 06:46:11;;;;;;;6.80;1.27;;;13.60;99.90;;;-146.41;100.00;57768.22;5021445;28;20041;-65
2022/05/25 06:48:51;;;;;;;2.90;0.90;;;;;;;-146.41;100.00;57768.22;5030482;28;20053;-64
2022/05/25 06:51:24;;;;;;;2.78;1.00;;;13.70;99.90;;;-146.41;100.00;57768.22;5030410;28;20096;-67
2022/05/25 06:53:51;;;;;;;3.38;1.23;;;13.70;99.90;;;-146.41;100.00;57768.22;5022025;28;20069;-68
2022/05/25 06:56:20;;;;;;;2.95;1.20;;;13.80;99.90;;;-146.41;100.00;57768.22;5023906;28;20487;-67
2022/05/25 06:58:48;;;;;;;3.42;1.10;;;13.90;99.90;;;-146.41;100.00;57768.22;5029904;28;20419;-67
2022/05/25 07:01:15;;;;;;;4.72;1.15;;;14.00;99.90;;;-146.41;100.00;57768.22;5029233;28;20096;-67
2022/05/25 07:03:43;;;;;;;2.58;0.93;;;14.10;99.90;;;-146.41;100.00;57768.22;5027551;28;20087;-67
2022/05/25 07:06:13;;;;;;;3.05;1.10;;;14.10;99.90;;;-146.41;100.00;57768.22;5025513;28;20054;-67
2022/05/25 07:08:41;;;;;;;3.15;1.10;;;14.20;99.90;;;-146.41;100.00;57768.22;5030559;28;20049;-67
2022/05/25 07:11:09;;;;;;;3.60;1.10;;;14.40;99.90;;;-146.41;100.00;57768.22;5030352;28;20148;-66
2022/05/25 07:13:36;;;;;;;3.90;1.00;;;14.50;99.90;;;-146.41;100.00;57768.22;5026409;28;20088;-68
2022/05/25 07:16:08;;;;;;;2.60;0.80;;;14.60;99.90;;;-146.41;100.00;57768.22;5022837;28;20057;-67
2022/05/25 07:18:37;;;;;;;3.35;0.93;;;14.70;99.90;;;-146.41;100.00;57768.22;5026710;28;20045;-67
2022/05/25 07:21:15;;;;;;;3.75;0.80;;;;;;;-146.41;100.00;57768.22;5030052;28;20076;-67
2022/05/25 07:23:45;;;;;;;2.90;0.82;;;14.90;99.90;;;-146.41;100.00;57768.22;5028880;28;20145;-67
2022/05/25 07:26:13;;;;;;;2.10;0.70;;;14.80;99.90;;;-146.41;100.00;57768.22;5025775;28;20570;-67
2022/05/25 07:28:40;;;;;;;2.33;0.70;;;14.90;99.90;;;-146.41;100.00;57768.22;5028898;28;20111;-67
2022/05/25 07:31:25;;;;;;;4.13;0.75;;;15.20;99.90;;;-146.41;100.00;57768.22;5026617;28;20087;-67
2022/05/25 07:34:06;;;;;;;2.38;0.50;;;15.50;99.90;;;-146.41;100.00;57768.22;5021010;28;20096;-66
2022/05/25 07:36:35;;;;;;;3.40;0.80;;;15.70;99.90;;;-146.41;100.00;57768.22;5024797;28;20046;-66
2022/05/25 07:39:08;;;;;;;2.65;0.80;;;15.50;99.90;;;-146.41;100.00;57768.22;5021159;28;20046;-66
2022/05/25 07:41:41;;;;;;;3.70;0.50;;;15.40;99.90;;;-146.41;100.00;57768.22;5023073;28;20073;-65
2022/05/25 07:44:13;;;;;;;3.10;0.70;;;15.40;99.90;;;-146.41;100.00;57768.22;5024993;28;20140;-67
2022/05/25 07:46:40;;;;;;;2.30;0.70;;;15.50;99.90;;;-146.41;100.00;57768.22;5019667;28;20121;-66
2022/05/25 07:49:07;;;;;;;2.33;0.70;;;15.60;99.90;;;-146.41;100.00;57768.22;5024899;28;20057;-68
2022/05/25 07:51:34;;;;;;;3.75;0.52;;;15.60;99.90;;;-146.41;100.00;57768.22;5028064;28;20121;-66
2022/05/25 07:54:03;;;;;;;3.75;0.45;;;15.60;99.90;;;-146.41;100.00;57768.22;5024529;28;20092;-67
2022/05/25 07:56:34;;;;;;;2.92;0.50;;;15.50;99.90;;;-146.41;100.00;57768.22;5020230;28;20680;-66
2022/05/25 07:59:13;;;;;;;2.53;0.57;;;15.50;99.90;;;-146.41;100.00;57768.22;5027601;28;20046;-66
2022/05/25 08:07:23;;;;;;;3.55;0.50;;;15.80;99.90;;;-146.41;100.00;57768.22;5017562;28;20099;-67
2022/05/25 08:09:55;;;;;;;6.10;0.50;;;15.80;99.90;;;-146.41;100.00;57768.22;5018566;28;20045;-66
2022/05/25 08:12:23;;;;;;;5.50;0.60;;;15.80;99.90;;;-146.41;100.00;57768.22;5025877;28;20152;-67
2022/05/25 08:14:50;;;;;;;3.60;0.60;;;15.80;99.90;;;-146.41;100.00;57768.22;5020075;28;20067;-65
2022/05/25 08:17:17;;;;;;;4.78;0.75;;;15.90;99.90;;;-146.41;100.00;57768.22;5025013;28;20140;-66
2022/05/25 08:19:43;;;;;;;1.83;0.30;;;15.90;99.90;;;-146.41;100.00;57768.22;5021598;28;20806;-66
2022/05/25 08:22:11;;;;;;;4.55;0.60;;;16.00;99.90;;;-146.41;100.00;57768.22;5025938;28;20046;-67
2022/05/25 08:24:38;;;;;;;3.05;0.60;;;16.30;99.90;;;-146.41;100.00;57768.22;5028455;28;20077;-66
2022/05/25 08:27:06;;;;;;;1.90;0.68;;;16.40;99.90;;;-146.41;100.00;57768.22;5026134;28;20577;-66
2022/05/25 08:29:33;;;;;;;1.58;0.60;;;16.50;99.90;;;-146.41;100.00;57768.22;5026641;28;20081;-65
2022/05/25 08:32:00;;;;;;;2.85;0.60;;;16.70;99.90;;;-146.41;100.00;57768.22;5028095;28;20068;-65
2022/05/25 08:34:28;;;;;;;3.22;0.65;;;16.80;99.90;;;-146.41;100.00;57768.22;5025624;28;20133;-65
2022/05/25 08:36:55;;;;;;;5.43;0.95;;;17.00;99.90;;;-146.41;100.00;57768.22;5023610;28;20131;-65
2022/05/25 08:39:22;;;;;;;3.35;0.75;;;17.10;99.90;;;-146.41;100.00;57768.22;5026202;28;20041;-67
2022/05/25 08:41:53;;;;;;;3.13;0.80;;;17.20;99.90;;;-146.41;100.00;57768.22;5024786;28;20130;-66
2022/05/25 08:44:23;;;;;;;2.65;0.50;;;17.20;99.90;;;-146.41;100.00;57768.22;5026431;28;20217;-66
2022/05/25 08:46:56;;;;;;;2.38;0.70;;;;;;;-146.41;100.00;57768.22;5021904;28;20112;-66
2022/05/25 08:49:26;;;;;;;4.22;0.82;;;17.70;99.90;;;-146.41;100.00;57768.22;5027010;28;20708;-66
2022/05/25 08:51:57;;;;;;;3.00;0.60;;;18.00;99.90;;;-146.41;100.00;57768.22;5022560;28;20069;-66
2022/05/25 08:54:28;;;;;;;4.15;1.05;;;18.20;99.90;;;-146.41;100.00;57768.22;5025633;28;20103;-66
2022/05/25 08:57:14;;;;;;;2.72;0.70;;;18.40;99.90;;;-146.41;100.00;57768.22;5027346;28;20139;-66
2022/05/25 08:59:57;;;;;;;1.63;0.60;;;18.60;99.90;;;-146.41;100.00;57768.22;5023118;28;20176;-66
2022/05/25 09:02:32;;;;;;;3.35;0.60;;;18.20;99.90;;;-146.41;100.00;57768.22;5013140;28;20045;-65
2022/05/25 09:05:20;;;;;;;2.25;0.70;;;18.00;99.90;;;-146.41;100.00;57768.22;5018619;28;20042;-66
2022/05/25 09:07:57;;;;;;;1.55;0.40;;;18.00;99.90;;;-146.41;100.00;57768.22;5024666;28;20148;-67
2022/05/25 09:10:26;;;;;;;3.95;0.60;;;17.80;99.90;;;-146.41;100.00;57768.22;5018731;28;20538;-68
2022/05/25 09:13:12;;;;;;;3.10;0.50;;;17.60;99.90;;;-146.41;100.00;57768.22;5017523;28;20049;-68
2022/05/25 09:18:44;;;;;;;3.75;0.55;;;18.50;99.90;;;-146.41;100.00;57768.22;5024983;28;20080;-69
2022/05/25 09:21:14;;;;;;;2.85;0.52;;;18.60;99.90;;;-146.41;100.00;57768.22;5020481;28;20175;-68
2022/05/25 09:23:44;;;;;;;3.85;0.63;;;18.70;99.90;;;-146.41;100.00;57768.22;5022039;28;20112;-68
2022/05/25 09:26:13;;;;;;;2.50;0.40;;;19.00;99.90;;;-146.41;100.00;57768.22;5020833;28;20142;-68
2022/05/25 09:28:44;;;;;;;2.53;0.40;;;19.00;99.90;;;-146.41;100.00;57768.22;5016298;28;20079;-68
2022/05/25 09:31:17;;;;;;;4.13;0.50;;;18.60;99.90;;;-146.41;100.00;57768.22;5018875;28;20050;-68
2022/05/25 09:33:57;;;;;;;5.07;0.60;;;18.50;99.90;;;-146.41;100.00;57768.22;5023314;28;20153;-68
2022/05/25 09:36:38;;;;;;;2.90;0.50;;;18.80;99.90;;;-146.41;100.00;57768.22;5025499;28;20057;-67
2022/05/25 09:39:30;;;;;;;2.90;0.40;;;19.10;99.90;;;-146.41;100.00;57768.22;5021328;28;20357;-68
2022/05/25 09:42:00;;;;;;;3.63;0.52;;;19.00;99.90;;;-146.41;100.00;57768.22;5024958;28;20487;-68
2022/05/25 09:44:29;;;;;;;2.83;0.45;;;19.10;99.90;;;-146.41;100.00;57768.22;5021056;28;20105;-68
2022/05/25 09:47:07;;;;;;;2.33;0.35;;;19.10;99.90;;;-146.41;100.00;57768.22;5018597;28;20144;-68
2022/05/25 09:49:34;;;;;;;2.55;0.38;;;18.80;99.90;;;-146.41;100.00;57768.22;5020605;28;20045;-68
2022/05/25 09:52:10;;;;;;;3.67;0.50;;;18.50;99.90;;;-146.41;100.00;57768.22;5025210;28;20144;-69
2022/05/25 09:54:46;;;;;;;3.30;0.40;;;18.80;99.90;;;-146.41;100.00;57768.22;5024245;28;20164;-68
2022/05/25 09:57:36;;;;;;;2.92;0.50;;;19.00;99.90;;;-146.41;100.00;57768.22;5024685;28;20057;-68
2022/05/25 10:00:09;;;;;;;2.47;0.60;;;19.60;99.90;;;-146.41;100.00;57768.22;5025592;28;20060;-68
2022/05/25 10:02:47;;;;;;;2.55;0.40;;;20.10;99.90;;;-146.41;100.00;57768.22;5023536;28;20124;-68
2022/05/25 10:05:14;;;;;;;2.20;0.40;;;19.80;99.90;;;-146.41;100.00;57768.22;5015273;28;20054;-69
2022/05/25 10:08:06;;;;;;;1.67;0.40;;;19.40;99.90;;;-146.41;100.00;57768.22;5018753;28;20106;-68
2022/05/25 10:10:55;;;;;;;2.00;0.35;;;19.30;99.90;;;-146.41;100.00;57768.22;5023973;28;20133;-68
2022/05/25 10:13:25;;;;;;;1.50;0.40;;;19.80;99.90;;;-146.41;100.00;57768.22;5016484;28;20057;-68
2022/05/25 10:15:53;;;;;;;3.20;0.40;;;20.00;99.80;;;-146.41;100.00;57768.22;5022588;28;20053;-69
2022/05/25 10:18:41;;;;;;;2.22;0.40;;;19.70;99.90;;;-146.41;100.00;57768.22;5020386;28;20718;-69
2022/05/25 10:21:25;;;;;;;1.50;0.30;;;19.80;98.70;;;-146.41;100.00;57768.22;5015768;28;20539;-69
2022/05/25 10:23:52;;;;;;;1.60;0.30;;;20.20;99.80;;;-146.41;100.00;57768.22;5020969;28;20097;-70
2022/05/25 10:26:50;;;;;;;3.38;0.35;;;20.00;97.60;;;-146.41;100.00;57768.22;5020284;28;20046;-68
2022/05/25 10:36:45;;;;;;;1.25;0.30;;;20.00;97.80;;;-146.41;100.00;57768.22;5024271;28;20161;-69
2022/05/25 10:38:24;;;;;;;3.30;0.60;;;20.80;97.20;;;-146.41;100.00;57768.22;5028149;28;20112;-68
2022/05/25 10:40:51;;;;;;;4.50;0.50;;;20.80;96.90;;;-146.41;100.00;57768.22;5028687;28;20084;-69
2022/05/25 10:43:30;;;;;;;1.05;0.40;;;21.30;99.50;;;-146.41;100.00;57768.22;5025808;28;20107;-68
2022/05/25 10:46:01;;;;;;;2.85;0.50;;;21.90;97.00;;;-146.41;100.00;57768.22;5020856;28;20046;-68
2022/05/25 10:48:40;;;;;;;4.53;0.75;;;22.20;94.90;;;-146.41;100.00;57768.22;5023022;28;20649;-68
2022/05/25 10:51:48;;;;;;;2.35;0.60;;;21.80;94.80;;;-146.41;100.00;57768.22;5016794;28;20551;-69